createdAt,value
2023-01-19T00:00:54.810Z,68.52
2023-01-19T00:01:54.844Z,68.52
2023-01-19T00:02:55.097Z,68.42
2023-01-19T00:03:55.008Z,68.45
2023-01-19T00:04:55.135Z,68.45
2023-01-19T00:05:55.166Z,68.55
2023-01-19T00:06:55.232Z,68.66
2023-01-19T00:07:55.311Z,68.76
2023-01-19T00:08:55.405Z,68.87
2023-01-19T00:09:55.460Z,68.97
2023-01-19T00:10:55.541Z,69.07
2023-01-19T00:11:55.629Z,69.18
2023-01-19T00:12:55.742Z,69.18
2023-01-19T00:13:55.795Z,69.18
2023-01-19T00:14:55.934Z,69.28
2023-01-19T00:15:55.989Z,69.42
2023-01-19T00:16:56.069Z,69.42
2023-01-19T00:17:56.167Z,69.53
2023-01-19T00:18:56.267Z,69.53
2023-01-19T00:19:56.366Z,69.53
2023-01-19T00:20:56.453Z,69.73
2023-01-19T00:21:56.513Z,69.84
2023-01-19T00:22:56.638Z,69.84
2023-01-19T00:23:56.641Z,69.94
2023-01-19T00:24:56.761Z,69.73
2023-01-19T00:25:56.798Z,69.53
2023-01-19T00:26:56.903Z,69.53
2023-01-19T00:27:57.176Z,69.49
2023-01-19T00:28:57.050Z,69.31
2023-01-19T00:29:57.290Z,69.31
2023-01-19T00:30:57.251Z,69.28
2023-01-19T00:31:57.327Z,69.38
2023-01-19T00:32:57.414Z,69.49
2023-01-19T00:33:57.513Z,69.59
2023-01-19T00:34:57.664Z,69.49
2023-01-19T00:35:57.664Z,69.38
2023-01-19T00:36:57.725Z,69.38
2023-01-19T00:37:57.820Z,69.28
2023-01-19T00:38:57.899Z,69.38
2023-01-19T00:39:58.004Z,69.38
2023-01-19T00:40:58.076Z,69.38
2023-01-19T00:41:58.174Z,69.28
2023-01-19T00:42:58.659Z,69.18
2023-01-19T00:43:58.320Z,69.07
2023-01-19T00:44:58.446Z,69.18
2023-01-19T00:45:58.610Z,69.28
2023-01-19T00:46:58.580Z,69.18
2023-01-19T00:47:58.686Z,69.07
2023-01-19T00:48:58.771Z,69.18
2023-01-19T00:49:58.879Z,69.18
2023-01-19T00:50:58.913Z,69.18
2023-01-19T00:51:59.002Z,69.07
2023-01-19T00:52:59.395Z,68.97
2023-01-19T00:53:59.187Z,68.97
2023-01-19T00:54:59.284Z,68.87
2023-01-19T00:55:59.357Z,68.87
2023-01-19T00:56:59.461Z,68.76
2023-01-19T00:57:59.545Z,68.66
2023-01-19T00:58:59.627Z,68.66
2023-01-19T00:59:59.738Z,68.66
2023-01-19T01:00:59.872Z,68.66
2023-01-19T01:02:00.062Z,68.76
2023-01-19T01:03:00.470Z,68.87
2023-01-19T01:04:00.061Z,68.97
2023-01-19T01:05:00.142Z,68.87
2023-01-19T01:06:00.190Z,68.90
2023-01-19T01:07:00.293Z,69.00
2023-01-19T01:08:00.381Z,68.90
2023-01-19T01:09:00.473Z,68.90
2023-01-19T01:10:00.567Z,68.90
2023-01-19T01:11:00.613Z,68.90
2023-01-19T01:12:00.709Z,69.00
2023-01-19T01:13:00.788Z,69.21
2023-01-19T01:14:00.857Z,69.31
2023-01-19T01:15:00.935Z,69.53
2023-01-19T01:16:01.008Z,69.53
2023-01-19T01:17:01.103Z,69.63
2023-01-19T01:18:01.200Z,69.53
2023-01-19T01:19:01.250Z,69.42
2023-01-19T01:20:01.373Z,69.42
2023-01-19T01:21:01.423Z,69.42
2023-01-19T01:22:01.531Z,69.63
2023-01-19T01:23:02.154Z,69.59
2023-01-19T01:24:01.717Z,69.59
2023-01-19T01:25:01.781Z,69.59
2023-01-19T01:26:01.884Z,69.59
2023-01-19T01:27:01.935Z,69.49
2023-01-19T01:28:02.026Z,69.49
2023-01-19T01:29:02.122Z,69.49
2023-01-19T01:30:02.215Z,69.38
2023-01-19T01:31:02.266Z,69.28
2023-01-19T01:32:02.363Z,69.38
2023-01-19T01:33:02.946Z,69.38
2023-01-19T01:34:02.522Z,69.38
2023-01-19T01:35:02.671Z,69.38
2023-01-19T01:36:02.698Z,69.28
2023-01-19T01:37:02.820Z,69.28
2023-01-19T01:38:02.876Z,69.28
2023-01-19T01:39:02.926Z,69.18
2023-01-19T01:40:03.028Z,69.18
2023-01-19T01:41:03.065Z,69.18
2023-01-19T01:42:03.168Z,69.18
2023-01-19T01:43:03.463Z,69.07
2023-01-19T01:44:03.318Z,68.87
2023-01-19T01:45:03.424Z,68.76
2023-01-19T01:46:03.575Z,68.55
2023-01-19T01:47:03.520Z,68.55
2023-01-19T01:48:03.633Z,68.55
2023-01-19T01:49:03.679Z,68.55
2023-01-19T01:50:03.790Z,68.55
2023-01-19T01:51:03.853Z,68.69
2023-01-19T01:52:03.888Z,68.76
2023-01-19T01:53:06.473Z,68.66
2023-01-19T01:54:04.063Z,68.55
2023-01-19T01:55:04.183Z,68.45
2023-01-19T01:56:04.232Z,68.24
2023-01-19T01:57:04.365Z,68.07
2023-01-19T01:58:04.414Z,68.17
2023-01-19T01:59:04.537Z,68.27
2023-01-19T02:00:04.604Z,68.48
2023-01-19T02:01:04.806Z,68.69
2023-01-19T02:02:04.835Z,68.69
2023-01-19T02:03:04.959Z,68.79
2023-01-19T02:04:04.931Z,68.66
2023-01-19T02:05:04.995Z,68.55
2023-01-19T02:06:05.075Z,68.35
2023-01-19T02:07:05.177Z,68.13
2023-01-19T02:08:05.278Z,68.13
2023-01-19T02:09:05.312Z,68.13
2023-01-19T02:10:05.431Z,68.24
2023-01-19T02:11:05.463Z,68.24
2023-01-19T02:12:05.563Z,68.35
2023-01-19T02:13:05.649Z,68.35
2023-01-19T02:14:05.787Z,68.13
2023-01-19T02:15:05.885Z,68.13
2023-01-19T02:16:05.928Z,68.03
2023-01-19T02:17:06.008Z,67.93
2023-01-19T02:18:06.084Z,67.82
2023-01-19T02:19:06.180Z,67.72
2023-01-19T02:20:06.300Z,67.72
2023-01-19T02:21:06.349Z,67.72
2023-01-19T02:22:14.832Z,67.72
2023-01-19T02:23:06.492Z,67.61
2023-01-19T02:24:06.585Z,67.61
2023-01-19T02:25:06.702Z,67.72
2023-01-19T02:26:06.757Z,67.61
2023-01-19T02:27:06.822Z,67.51
2023-01-19T02:28:06.921Z,67.51
2023-01-19T02:29:06.987Z,67.51
2023-01-19T02:30:07.098Z,67.61
2023-01-19T02:31:07.323Z,67.72
2023-01-19T02:32:07.213Z,67.82
2023-01-19T02:33:07.310Z,67.93
2023-01-19T02:34:07.396Z,67.93
2023-01-19T02:35:07.497Z,67.82
2023-01-19T02:36:07.579Z,67.82
2023-01-19T02:37:07.666Z,67.82
2023-01-19T02:38:07.777Z,67.93
2023-01-19T02:39:07.826Z,68.03
2023-01-19T02:40:07.944Z,68.13
2023-01-19T02:41:07.973Z,68.13
2023-01-19T02:42:08.079Z,68.24
2023-01-19T02:43:08.167Z,68.24
2023-01-19T02:44:08.237Z,68.24
2023-01-19T02:45:08.368Z,68.13
2023-01-19T02:46:08.510Z,68.24
2023-01-19T02:47:08.534Z,68.21
2023-01-19T02:48:08.635Z,68.32
2023-01-19T02:49:08.708Z,68.42
2023-01-19T02:50:08.789Z,68.42
2023-01-19T02:51:08.871Z,68.32
2023-01-19T02:52:08.967Z,68.10
2023-01-19T02:53:09.074Z,68.10
2023-01-19T02:54:09.170Z,68.00
2023-01-19T02:55:09.265Z,68.10
2023-01-19T02:56:09.377Z,68.10
2023-01-19T02:57:09.443Z,68.21
2023-01-19T02:58:09.558Z,68.32
2023-01-19T02:59:09.633Z,68.32
2023-01-19T03:00:09.744Z,68.21
2023-01-19T03:01:09.920Z,68.00
2023-01-19T03:02:10.008Z,67.79
2023-01-19T03:03:09.950Z,67.69
2023-01-19T03:04:10.054Z,67.58
2023-01-19T03:05:10.148Z,67.38
2023-01-19T03:06:10.250Z,67.27
2023-01-19T03:07:10.328Z,67.17
2023-01-19T03:08:10.423Z,67.17
2023-01-19T03:09:10.463Z,67.10
2023-01-19T03:10:10.558Z,66.99
2023-01-19T03:11:10.652Z,66.89
2023-01-19T03:12:10.752Z,66.89
2023-01-19T03:13:10.873Z,66.89
2023-01-19T03:14:10.936Z,67.10
2023-01-19T03:15:11.037Z,67.20
2023-01-19T03:16:11.269Z,67.41
2023-01-19T03:17:11.193Z,67.41
2023-01-19T03:18:11.284Z,67.41
2023-01-19T03:19:11.342Z,67.30
2023-01-19T03:20:11.445Z,67.30
2023-01-19T03:21:11.508Z,67.20
2023-01-19T03:22:11.592Z,67.10
2023-01-19T03:23:11.687Z,66.89
2023-01-19T03:24:11.778Z,66.78
2023-01-19T03:25:11.864Z,66.78
2023-01-19T03:26:11.993Z,66.68
2023-01-19T03:27:12.018Z,66.78
2023-01-19T03:28:12.137Z,66.78
2023-01-19T03:29:12.191Z,66.68
2023-01-19T03:30:12.267Z,66.68
2023-01-19T03:31:12.476Z,66.78
2023-01-19T03:32:12.480Z,66.99
2023-01-19T03:33:12.537Z,67.10
2023-01-19T03:34:12.616Z,67.30
2023-01-19T03:35:12.689Z,67.51
2023-01-19T03:36:12.857Z,67.72
2023-01-19T03:37:12.865Z,67.82
2023-01-19T03:38:12.964Z,67.82
2023-01-19T03:39:13.032Z,67.72
2023-01-19T03:40:13.155Z,67.61
2023-01-19T03:41:13.229Z,67.61
2023-01-19T03:42:13.286Z,67.61
2023-01-19T03:43:13.339Z,67.72
2023-01-19T03:44:13.404Z,67.82
2023-01-19T03:45:13.465Z,67.82
2023-01-19T03:46:13.666Z,67.82
2023-01-19T03:47:13.623Z,67.82
2023-01-19T03:48:13.676Z,67.93
2023-01-19T03:49:13.774Z,68.03
2023-01-19T03:50:13.827Z,68.03
2023-01-19T03:51:13.923Z,67.93
2023-01-19T03:52:14.030Z,67.82
2023-01-19T03:53:14.108Z,67.51
2023-01-19T03:54:14.189Z,67.20
2023-01-19T03:55:14.301Z,66.99
2023-01-19T03:56:14.419Z,66.99
2023-01-19T03:57:14.455Z,66.99
2023-01-19T03:58:14.607Z,66.99
2023-01-19T03:59:14.654Z,67.10
2023-01-19T04:00:14.753Z,67.20
2023-01-19T04:01:15.011Z,67.30
2023-01-19T04:02:15.137Z,67.30
2023-01-19T04:03:14.999Z,67.41
2023-01-19T04:04:15.116Z,67.51
2023-01-19T04:05:15.171Z,67.51
2023-01-19T04:06:15.290Z,67.51
2023-01-19T04:07:15.349Z,67.51
2023-01-19T04:08:15.439Z,67.51
2023-01-19T04:09:15.481Z,67.51
2023-01-19T04:10:15.555Z,67.61
2023-01-19T04:11:15.655Z,67.69
2023-01-19T04:12:15.706Z,67.58
2023-01-19T04:13:15.776Z,67.69
2023-01-19T04:24:27.820Z,68.75
2023-01-19T04:25:28.833Z,68.96
2023-01-19T04:26:28.859Z,69.17
2023-01-19T04:27:28.897Z,69.17
2023-01-19T04:28:29.000Z,69.24
2023-01-19T04:29:29.060Z,69.13
2023-01-19T04:30:29.165Z,69.13
2023-01-19T04:31:29.310Z,69.13
2023-01-19T04:32:29.291Z,69.03
2023-01-19T04:33:29.400Z,68.90
2023-01-19T04:34:29.426Z,68.90
2023-01-19T04:35:29.522Z,68.90
2023-01-19T04:36:29.655Z,68.90
2023-01-19T04:37:29.691Z,68.90
2023-01-19T04:38:29.781Z,68.90
2023-01-19T04:39:29.890Z,68.79
2023-01-19T04:40:29.943Z,68.69
2023-01-19T04:41:31.129Z,68.55
2023-01-19T04:42:30.094Z,68.45
2023-01-19T04:43:30.191Z,68.45
2023-01-19T04:44:30.259Z,68.35
2023-01-19T04:45:30.363Z,68.35
2023-01-19T04:46:30.497Z,68.35
2023-01-19T04:47:30.540Z,68.45
2023-01-19T04:48:30.625Z,68.35
2023-01-19T04:49:30.738Z,68.35
2023-01-19T04:50:30.787Z,68.35
2023-01-19T04:51:30.891Z,68.35
2023-01-19T04:52:30.928Z,68.45
2023-01-19T04:53:31.028Z,68.45
2023-01-19T04:54:31.136Z,68.45
2023-01-19T04:55:31.205Z,68.35
2023-01-19T04:56:31.313Z,68.45
2023-01-19T04:57:31.393Z,68.35
2023-01-19T04:58:31.471Z,68.24
2023-01-19T04:59:31.537Z,68.21
2023-01-19T05:00:31.630Z,68.00
2023-01-19T05:01:31.844Z,67.90
2023-01-19T05:02:31.824Z,67.90
2023-01-19T05:03:31.916Z,68.00
2023-01-19T05:04:32.034Z,68.00
2023-01-19T05:05:32.099Z,68.10
2023-01-19T05:06:32.235Z,68.10
2023-01-19T05:07:32.304Z,68.10
2023-01-19T05:08:32.358Z,68.10
2023-01-19T05:09:32.445Z,68.10
2023-01-19T05:10:32.537Z,68.10
2023-01-19T05:11:32.639Z,68.10
2023-01-19T05:12:32.693Z,68.21
2023-01-19T05:13:32.762Z,68.21
2023-01-19T05:14:32.835Z,68.32
2023-01-19T05:15:32.978Z,68.32
2023-01-19T05:16:33.058Z,68.32
2023-01-19T05:17:33.080Z,68.32
2023-01-19T05:18:33.162Z,68.32
2023-01-19T05:19:33.250Z,68.32
2023-01-19T05:20:33.328Z,68.32
2023-01-19T05:21:33.474Z,68.32
2023-01-19T05:22:33.516Z,68.42
2023-01-19T05:23:33.605Z,68.42
2023-01-19T05:24:33.667Z,68.42
2023-01-19T05:25:33.757Z,68.45
2023-01-19T05:26:33.881Z,68.42
2023-01-19T05:27:33.912Z,68.42
2023-01-19T05:28:34.005Z,68.32
2023-01-19T05:29:34.084Z,68.32
2023-01-19T05:30:34.247Z,68.21
2023-01-19T05:31:34.428Z,68.21
2023-01-19T05:32:34.353Z,68.21
2023-01-19T05:33:34.461Z,68.10
2023-01-19T05:34:34.546Z,68.10
2023-01-19T05:35:36.578Z,68.00
2023-01-19T05:36:34.796Z,67.90
2023-01-19T05:37:34.831Z,67.90
2023-01-19T05:38:36.010Z,67.90
2023-01-19T05:39:34.992Z,67.90
2023-01-19T05:40:35.079Z,68.00
2023-01-19T05:41:35.181Z,67.90
2023-01-19T05:42:35.223Z,67.79
2023-01-19T05:43:35.330Z,67.69
2023-01-19T05:44:35.418Z,67.58
2023-01-19T05:45:35.495Z,67.48
2023-01-19T05:46:35.631Z,67.48
2023-01-19T05:47:35.705Z,67.41
2023-01-19T05:48:35.792Z,67.41
2023-01-19T05:49:35.844Z,67.30
2023-01-19T05:50:35.953Z,67.41
2023-01-19T05:51:36.060Z,67.51
2023-01-19T05:52:36.113Z,67.51
2023-01-19T05:53:36.216Z,67.61
2023-01-19T05:54:36.301Z,67.61
2023-01-19T05:55:36.424Z,67.72
2023-01-19T05:56:36.494Z,67.61
2023-01-19T05:57:36.567Z,67.72
2023-01-19T05:58:36.605Z,67.72
2023-01-19T05:59:36.716Z,67.72
2023-01-19T06:00:36.784Z,67.72
2023-01-19T06:01:38.778Z,67.61
2023-01-19T06:02:36.939Z,67.51
2023-01-19T06:03:37.194Z,67.20
2023-01-19T06:04:37.134Z,66.99
2023-01-19T06:05:37.241Z,66.47
2023-01-19T06:06:37.324Z,66.47
2023-01-19T06:07:37.403Z,66.50
2023-01-19T06:08:37.513Z,66.39
2023-01-19T06:09:37.566Z,66.39
2023-01-19T06:10:37.607Z,66.50
2023-01-19T06:11:37.747Z,66.39
2023-01-19T06:12:37.808Z,66.29
2023-01-19T06:13:37.890Z,66.29
2023-01-19T06:14:37.983Z,66.50
2023-01-19T06:15:38.092Z,66.74
2023-01-19T06:16:38.201Z,66.95
2023-01-19T06:17:38.231Z,67.16
2023-01-19T06:18:38.285Z,67.26
2023-01-19T06:19:38.396Z,67.36
2023-01-19T06:20:38.461Z,67.44
2023-01-19T06:21:38.537Z,67.44
2023-01-19T06:22:38.568Z,67.54
2023-01-19T06:23:38.667Z,67.54
2023-01-19T06:24:38.701Z,67.54
2023-01-19T06:25:38.833Z,67.54
2023-01-19T06:26:38.903Z,67.54
2023-01-19T06:27:38.948Z,67.65
2023-01-19T06:28:39.033Z,67.75
2023-01-19T06:29:39.130Z,67.75
2023-01-19T06:30:39.259Z,67.75
2023-01-19T06:31:39.276Z,67.85
2023-01-19T06:32:39.300Z,67.96
2023-01-19T06:33:39.386Z,67.96
2023-01-19T06:34:39.479Z,67.96
2023-01-19T06:35:39.566Z,67.96
2023-01-19T06:36:39.718Z,67.96
2023-01-19T06:37:39.758Z,67.96
2023-01-19T06:38:39.793Z,67.96
2023-01-19T06:39:39.903Z,67.96
2023-01-19T06:40:39.962Z,68.07
2023-01-19T06:41:40.071Z,68.07
2023-01-19T06:42:40.125Z,67.96
2023-01-19T06:43:40.246Z,67.96
2023-01-19T06:44:40.316Z,67.85
2023-01-19T06:45:40.461Z,67.54
2023-01-19T06:46:40.548Z,67.33
2023-01-19T06:47:40.712Z,67.23
2023-01-19T06:48:40.657Z,67.23
2023-01-19T06:49:40.750Z,67.23
2023-01-19T06:50:40.820Z,67.23
2023-01-19T06:51:40.939Z,67.23
2023-01-19T06:52:41.005Z,67.23
2023-01-19T06:53:41.086Z,67.33
2023-01-19T06:54:41.158Z,67.23
2023-01-19T06:55:41.286Z,67.13
2023-01-19T06:56:41.379Z,67.02
2023-01-19T06:57:41.451Z,67.02
2023-01-19T06:58:41.535Z,66.82
2023-01-19T06:59:41.643Z,66.71
2023-01-19T07:00:41.707Z,66.74
2023-01-19T07:01:41.982Z,66.85
2023-01-19T07:02:41.963Z,66.95
2023-01-19T07:03:41.961Z,67.05
2023-01-19T07:04:42.014Z,67.26
2023-01-19T07:05:42.137Z,67.36
2023-01-19T07:06:42.194Z,67.36
2023-01-19T07:07:42.244Z,67.23
2023-01-19T07:08:42.320Z,67.26
2023-01-19T07:09:42.431Z,67.05
2023-01-19T07:11:24.773Z,67.05
2023-01-19T07:11:42.599Z,67.16
2023-01-19T07:12:42.656Z,67.26
2023-01-19T07:13:42.728Z,67.05
2023-01-19T07:14:42.784Z,66.85
2023-01-19T07:15:42.910Z,66.74
2023-01-19T07:16:43.050Z,66.74
2023-01-19T07:17:43.043Z,66.74
2023-01-19T07:18:43.128Z,66.85
2023-01-19T07:19:43.262Z,66.63
2023-01-19T07:20:43.265Z,66.63
2023-01-19T07:21:43.406Z,66.85
2023-01-19T07:22:43.500Z,67.05
2023-01-19T07:23:43.634Z,67.16
2023-01-19T07:24:43.612Z,67.36
2023-01-19T07:25:43.715Z,67.26
2023-01-19T07:26:43.776Z,67.26
2023-01-19T07:27:43.853Z,67.29
2023-01-19T07:28:43.994Z,67.29
2023-01-19T07:29:44.090Z,67.50
2023-01-19T07:30:44.195Z,67.60
2023-01-19T07:31:44.352Z,67.60
2023-01-19T07:32:44.295Z,67.60
2023-01-19T07:33:44.408Z,66.88
2023-01-19T07:34:44.432Z,66.98
2023-01-19T07:35:44.535Z,67.08
2023-01-19T07:36:44.671Z,67.19
2023-01-19T07:37:44.739Z,67.29
2023-01-19T07:38:44.789Z,67.19
2023-01-19T07:39:44.927Z,67.19
2023-01-19T07:40:44.973Z,66.98
2023-01-19T07:41:45.061Z,66.98
2023-01-19T07:42:45.111Z,67.08
2023-01-19T07:43:45.216Z,67.19
2023-01-19T07:44:45.251Z,67.43
2023-01-19T07:45:45.392Z,67.43
2023-01-19T07:46:45.421Z,67.43
2023-01-19T07:47:45.485Z,67.43
2023-01-19T07:48:45.574Z,67.32
2023-01-19T07:49:45.679Z,67.22
2023-01-19T07:50:45.704Z,67.32
2023-01-19T07:51:45.829Z,67.43
2023-01-19T07:52:45.910Z,67.53
2023-01-19T07:53:45.952Z,67.53
2023-01-19T07:54:46.098Z,67.53
2023-01-19T07:55:46.137Z,67.53
2023-01-19T07:56:46.239Z,67.53
2023-01-19T07:57:46.327Z,67.32
2023-01-19T07:58:46.411Z,67.01
2023-01-19T07:59:46.494Z,66.69
2023-01-19T08:00:46.536Z,66.49
2023-01-19T08:01:46.795Z,66.49
2023-01-19T08:02:46.737Z,66.49
2023-01-19T08:03:46.826Z,66.49
2023-01-19T08:04:46.941Z,66.38
2023-01-19T08:05:46.936Z,66.17
2023-01-19T08:06:47.078Z,66.28
2023-01-19T08:07:47.272Z,66.49
2023-01-19T08:08:47.199Z,66.59
2023-01-19T08:09:47.310Z,66.59
2023-01-19T08:10:47.395Z,66.59
2023-01-19T08:11:47.507Z,66.59
2023-01-19T08:12:47.575Z,66.49
2023-01-19T08:13:47.642Z,66.38
2023-01-19T08:14:47.675Z,66.38
2023-01-19T08:15:47.818Z,66.49
2023-01-19T08:16:47.882Z,66.59
2023-01-19T08:17:47.920Z,66.59
2023-01-19T08:18:48.056Z,66.69
2023-01-19T08:19:48.096Z,66.80
2023-01-19T08:20:48.223Z,66.91
2023-01-19T08:21:48.296Z,67.01
2023-01-19T08:22:48.325Z,66.98
2023-01-19T08:23:48.470Z,66.88
2023-01-19T08:24:50.344Z,66.77
2023-01-19T08:25:48.618Z,66.56
2023-01-19T08:26:48.684Z,66.46
2023-01-19T08:27:48.746Z,66.46
2023-01-19T08:28:48.788Z,66.46
2023-01-19T08:29:48.885Z,66.56
2023-01-19T08:30:49.068Z,66.66
2023-01-19T08:31:49.204Z,66.35
2023-01-19T08:32:49.138Z,66.25
2023-01-19T08:33:49.244Z,66.25
2023-01-19T08:34:49.327Z,66.25
2023-01-19T08:35:49.414Z,66.35
2023-01-19T08:36:49.564Z,66.25
2023-01-19T08:37:49.628Z,66.14
2023-01-19T08:38:49.678Z,66.04
2023-01-19T08:39:49.780Z,65.94
2023-01-19T08:40:49.928Z,65.94
2023-01-19T08:41:49.948Z,66.14
2023-01-19T08:42:50.035Z,66.25
2023-01-19T08:43:50.108Z,66.25
2023-01-19T08:44:58.126Z,66.25
2023-01-19T08:45:50.299Z,66.35
2023-01-19T08:46:50.399Z,66.35
2023-01-19T08:47:50.499Z,66.25
2023-01-19T08:48:50.721Z,66.04
2023-01-19T08:49:50.635Z,65.83
2023-01-19T08:50:50.781Z,65.94
2023-01-19T08:51:50.858Z,66.14
2023-01-19T08:52:50.905Z,66.35
2023-01-19T08:53:50.961Z,66.35
2023-01-19T08:54:51.046Z,66.56
2023-01-19T08:55:51.145Z,66.56
2023-01-19T08:56:51.244Z,66.66
2023-01-19T08:57:51.291Z,66.56
2023-01-19T08:59:07.550Z,66.35
2023-01-19T08:59:51.499Z,66.46
2023-01-19T09:00:51.596Z,66.56
2023-01-19T09:01:51.848Z,66.56
2023-01-19T09:02:51.818Z,66.46
2023-01-19T09:03:51.832Z,66.32
2023-01-19T09:04:51.882Z,66.14
2023-01-19T09:05:51.959Z,66.01
2023-01-19T09:06:52.116Z,66.04
2023-01-19T09:07:52.163Z,66.04
2023-01-19T09:08:52.248Z,65.94
2023-01-19T09:09:52.325Z,65.62
2023-01-19T09:10:52.441Z,65.41
2023-01-19T09:11:52.539Z,65.41
2023-01-19T09:12:52.591Z,65.41
2023-01-19T09:13:52.671Z,65.52
2023-01-19T09:14:52.776Z,65.52
2023-01-19T09:15:52.886Z,65.41
2023-01-19T09:16:52.967Z,65.31
2023-01-19T09:17:52.985Z,65.20
2023-01-19T09:18:53.083Z,65.20
2023-01-19T09:19:53.194Z,65.31
2023-01-19T09:20:53.247Z,65.20
2023-01-19T09:21:53.351Z,65.00
2023-01-19T09:22:53.431Z,64.79
2023-01-19T09:23:53.505Z,64.79
2023-01-19T09:24:53.599Z,64.69
2023-01-19T09:25:53.708Z,64.58
2023-01-19T09:26:53.782Z,64.69
2023-01-19T09:27:53.817Z,64.79
2023-01-19T09:28:53.917Z,64.79
2023-01-19T09:29:54.011Z,64.89
2023-01-19T09:30:54.388Z,64.89
2023-01-19T09:31:54.242Z,64.89
2023-01-19T09:32:54.281Z,65.00
2023-01-19T09:33:54.354Z,65.00
2023-01-19T09:34:54.469Z,65.00
2023-01-19T09:35:54.535Z,65.10
2023-01-19T09:36:54.656Z,64.89
2023-01-19T09:37:54.666Z,64.89
2023-01-19T09:38:54.768Z,65.00
2023-01-19T09:39:54.879Z,65.00
2023-01-19T09:40:54.941Z,64.89
2023-01-19T09:41:55.032Z,64.89
2023-01-19T09:42:55.108Z,65.00
2023-01-19T09:43:55.173Z,64.89
2023-01-19T09:44:55.238Z,64.89
2023-01-19T09:45:55.274Z,64.79
2023-01-19T09:46:55.408Z,64.86
2023-01-19T09:47:55.435Z,64.76
2023-01-19T09:48:55.540Z,64.55
2023-01-19T09:49:55.630Z,64.65
2023-01-19T09:50:55.712Z,64.55
2023-01-19T09:51:55.835Z,64.45
2023-01-19T09:52:55.858Z,64.45
2023-01-19T09:53:56.036Z,64.55
2023-01-19T09:54:56.058Z,64.45
2023-01-19T09:55:56.108Z,64.42
2023-01-19T09:56:56.176Z,64.31
2023-01-19T09:57:56.230Z,64.31
2023-01-19T09:58:56.350Z,64.31
2023-01-19T09:59:56.429Z,64.42
2023-01-19T10:00:56.675Z,64.52
2023-01-19T10:01:56.635Z,64.62
2023-01-19T10:02:56.722Z,64.73
2023-01-19T10:03:56.766Z,64.73
2023-01-19T10:04:56.829Z,64.62
2023-01-19T10:05:56.859Z,64.52
2023-01-19T10:06:56.989Z,64.42
2023-01-19T10:07:57.039Z,63.06
2023-01-19T10:08:57.073Z,62.85
2023-01-19T10:09:57.168Z,63.06
2023-01-19T10:10:57.245Z,62.85
2023-01-19T10:11:57.347Z,62.75
2023-01-19T10:12:57.428Z,62.43
2023-01-19T10:13:57.525Z,62.43
2023-01-19T10:14:57.644Z,62.64
2023-01-19T10:15:57.696Z,62.57
2023-01-19T10:16:57.789Z,62.36
2023-01-19T10:17:57.882Z,62.26
2023-01-19T10:18:57.937Z,62.26
2023-01-19T10:19:58.002Z,62.36
2023-01-19T10:20:58.079Z,62.57
2023-01-19T10:21:58.226Z,62.67
2023-01-19T10:22:58.312Z,62.77
2023-01-19T10:23:58.361Z,62.77
2023-01-19T10:26:38.108Z,62.05
2023-01-19T10:27:39.956Z,62.28
2023-01-19T12:21:26.290Z,63.79
2023-01-19T12:32:07.454Z,63.23
2023-01-19T12:41:07.734Z,63.76
2023-01-19T12:53:36.952Z,64.17
2023-01-19T13:11:00.787Z,64.17
2023-01-19T13:12:01.165Z,64.17
2023-01-19T13:13:00.667Z,64.17
2023-01-19T13:20:08.756Z,63.52
2023-01-19T13:24:20.372Z,63.93
2023-01-19T13:28:45.592Z,64.25
2023-01-19T15:34:21.916Z,65.09
2023-01-19T16:38:05.077Z,65.61
2023-01-19T16:41:56.680Z,65.30
2023-01-19T16:48:57.058Z,65.06
2023-01-19T16:49:56.956Z,65.06
2023-01-19T17:17:09.592Z,66.52
2023-01-19T17:22:27.511Z,66.72
2023-01-19T17:23:28.394Z,66.72
2023-01-19T17:24:28.735Z,66.72
2023-01-19T17:25:28.583Z,66.72
2023-01-19T17:26:28.730Z,66.59
2023-01-19T17:27:29.700Z,66.49
2023-01-19T17:29:25.737Z,66.28
2023-01-19T17:30:26.817Z,66.07
2023-01-19T17:31:27.037Z,66.04
2023-01-19T17:32:26.902Z,66.04
2023-01-19T17:33:26.946Z,66.04
2023-01-19T17:34:27.069Z,66.04
2023-01-19T17:35:27.129Z,65.94
2023-01-19T17:36:27.223Z,65.83
2023-01-19T17:37:27.308Z,65.70
2023-01-19T17:38:27.352Z,65.59
2023-01-19T17:39:27.462Z,65.59
2023-01-19T17:40:27.527Z,65.59
2023-01-19T17:41:27.562Z,65.48
2023-01-19T17:42:27.665Z,65.38
2023-01-19T17:43:27.702Z,65.38
2023-01-19T17:44:27.832Z,65.25
2023-01-19T17:45:27.893Z,65.25
2023-01-19T18:08:11.245Z,65.58
2023-01-19T18:17:43.837Z,66.31
2023-01-19T18:18:45.066Z,66.31
2023-01-19T18:19:44.989Z,66.31
2023-01-19T18:20:44.828Z,66.31
2023-01-19T18:21:45.021Z,66.31
2023-01-19T18:22:45.030Z,66.17
2023-01-19T19:36:10.616Z,64.34
2023-01-19T20:38:46.296Z,65.49
2023-01-19T21:18:21.762Z,64.18
2023-01-19T21:22:01.123Z,64.40
2023-01-19T21:42:38.416Z,64.01
2023-01-19T21:45:27.364Z,64.22
2023-01-19T21:50:15.463Z,64.18
2023-01-19T21:51:17.278Z,64.18
2023-01-19T21:52:16.657Z,64.29
2023-01-19T21:53:16.673Z,64.18
2023-01-19T21:54:16.777Z,64.08
2023-01-19T21:55:16.879Z,64.05
2023-01-19T21:56:16.951Z,63.84
2023-01-19T21:57:17.029Z,63.74
2023-01-19T21:58:17.065Z,63.71
2023-01-19T21:59:19.060Z,63.60
2023-01-19T22:00:17.256Z,63.40
2023-01-19T22:01:17.454Z,63.29
2023-01-19T22:02:29.861Z,63.18
2023-01-19T22:03:17.515Z,63.08
2023-01-19T22:04:17.550Z,62.98
2023-01-19T22:05:17.699Z,62.63
2023-01-19T22:06:17.790Z,62.63
2023-01-19T22:07:17.805Z,62.74
2023-01-19T22:08:17.930Z,62.84
2023-01-19T22:09:17.990Z,62.95
2023-01-19T22:10:18.114Z,62.63
2023-01-19T22:11:18.203Z,62.53
2023-01-19T22:12:18.259Z,62.53
2023-01-19T22:13:18.346Z,62.50
2023-01-19T22:14:18.408Z,62.50
2023-01-19T22:15:18.466Z,62.50
2023-01-19T22:16:18.656Z,62.19
2023-01-19T22:17:18.648Z,62.19
2023-01-19T22:18:18.700Z,62.29
2023-01-19T22:19:18.822Z,62.19
2023-01-19T22:20:18.868Z,61.98
2023-01-19T22:21:19.004Z,61.88
2023-01-19T22:22:19.067Z,61.88
2023-01-19T22:23:19.147Z,61.98
2023-01-19T22:24:19.164Z,62.08
2023-01-19T22:25:19.290Z,62.08
2023-01-19T22:26:19.366Z,62.19
2023-01-19T22:27:19.445Z,62.19
2023-01-19T22:28:19.531Z,62.08
2023-01-19T22:29:19.657Z,61.77
2023-01-19T22:30:19.795Z,61.66
2023-01-19T22:31:19.997Z,61.66
2023-01-19T22:32:19.901Z,61.46
2023-01-19T22:33:19.990Z,61.35
2023-01-19T22:34:20.006Z,61.35
2023-01-19T22:35:20.109Z,61.15
2023-01-19T22:36:20.193Z,61.04
2023-01-19T22:37:20.252Z,61.15
2023-01-19T22:38:20.295Z,61.04
2023-01-19T22:39:20.382Z,61.04
2023-01-19T22:40:20.493Z,61.25
2023-01-19T22:41:20.596Z,61.04
2023-01-19T22:42:20.633Z,60.83
2023-01-19T22:43:20.721Z,60.83
2023-01-19T22:44:20.815Z,61.04
2023-01-19T22:45:20.886Z,61.25
2023-01-19T22:46:21.037Z,61.46
2023-01-19T22:47:21.040Z,61.46
2023-01-19T22:48:21.137Z,61.35
2023-01-19T22:49:21.258Z,61.35
2023-01-19T22:50:21.304Z,61.35
2023-01-19T22:51:21.449Z,61.15
2023-01-19T22:52:21.478Z,61.04
2023-01-19T22:53:21.585Z,61.15
2023-01-19T22:54:21.680Z,61.25
2023-01-19T22:55:21.745Z,61.15
2023-01-19T22:56:21.849Z,61.15
2023-01-19T22:57:21.944Z,61.04
2023-01-19T22:58:22.032Z,61.04
2023-01-19T22:59:22.117Z,61.15
2023-01-19T23:00:22.213Z,61.25
2023-01-19T23:01:22.524Z,61.25
2023-01-19T23:02:22.424Z,61.25
2023-01-19T23:03:22.475Z,61.35
2023-01-19T23:04:22.563Z,61.35
2023-01-19T23:05:22.732Z,61.25
2023-01-19T23:06:22.753Z,61.25
2023-01-19T23:07:22.792Z,61.15
2023-01-19T23:08:22.872Z,61.04
2023-01-19T23:09:22.966Z,61.04
2023-01-19T23:10:23.070Z,61.04
2023-01-19T23:11:23.257Z,61.15
2023-01-19T23:12:23.249Z,61.15
2023-01-19T23:13:23.407Z,61.15
2023-01-19T23:14:23.437Z,61.15
2023-01-19T23:15:23.567Z,61.15
2023-01-19T23:16:23.632Z,61.04
2023-01-19T23:17:23.712Z,61.04
2023-01-19T23:18:23.851Z,60.93
2023-01-19T23:19:24.555Z,60.93
2023-01-19T23:20:23.948Z,60.93
2023-01-19T23:21:24.184Z,60.83
2023-01-19T23:22:24.108Z,60.83
2023-01-19T23:23:24.226Z,60.72
2023-01-19T23:24:24.295Z,60.72
2023-01-19T23:25:24.339Z,60.72
2023-01-19T23:26:24.454Z,60.72
2023-01-19T23:27:24.521Z,60.52
2023-01-19T23:28:24.569Z,60.41
2023-01-19T23:29:24.667Z,60.41
2023-01-19T23:30:24.776Z,60.31
2023-01-19T23:31:25.002Z,60.21
2023-01-19T23:32:24.950Z,60.21
2023-01-19T23:33:25.071Z,60.21
2023-01-19T23:34:25.107Z,60.21
2023-01-19T23:35:25.213Z,60.10